Time;durP1;ratioP1;P1;durP2;ratioP2;P2;SDS_P1;SDS_P2;PMS_P1;PMS_P2;Temp;Humidity;BMP_temperature;BMP_pressure;BME280_temperature;BME280_humidity;BME280_pressure;Samples;Min_cycle;Max_cycle;Signal;HPM_P1;HPM_P2
2023/01/15 00:01:25;;;;;;;;;1.75;1.75;;;;;;;;5120118;27;11040;-78
2023/01/15 00:03:58;;;;;;;;;3.50;1.75;;;;;;;;5124715;27;10941;-78
2023/01/15 00:06:26;;;;;;;;;0.00;0.00;;;;;;;;5123544;27;10963;-78
2023/01/15 00:08:54;;;;;;;;;1.00;1.00;;;;;;;;5106446;27;10904;-79
2023/01/15 00:11:23;;;;;;;;;0.00;0.00;;;;;;;;5124942;27;11004;-78
2023/01/15 00:13:51;;;;;;;;;0.00;0.00;;;;;;;;5123730;27;10867;-77
2023/01/15 00:16:20;;;;;;;;;2.25;0.00;;;;;;;;5122739;27;11748;-78
2023/01/15 00:18:51;;;;;;;;;0.00;0.00;;;;;;;;5102606;27;10982;-76
2023/01/15 00:21:21;;;;;;;;;0.00;0.00;;;;;;;;5122698;27;10925;-77
2023/01/15 00:29:20;;;;;;;;;0.00;0.00;;;;;;;;5122629;27;10861;-77
2023/01/15 00:31:54;;;;;;;;;0.00;0.00;;;;;;;;5102866;27;10832;-78
2023/01/15 00:34:21;;;;;;;;;0.00;0.00;;;;;;;;5124175;27;10855;-77
2023/01/15 00:36:51;;;;;;;;;0.50;0.50;;;;;;;;5119297;27;11679;-78
2023/01/15 00:39:19;;;;;;;;;0.75;0.75;;;;;;;;5105552;27;10774;-78
2023/01/15 00:41:46;;;;;;;;;0.00;0.00;;;;;;;;5122183;27;10846;-77
2023/01/15 00:44:16;;;;;;;;;1.00;0.00;;;;;;;;5121135;27;11716;-78
2023/01/15 00:46:44;;;;;;;;;0.00;0.00;;;;;;;;5123299;27;10903;-78
2023/01/15 00:49:12;;;;;;;;;0.00;0.00;;;;;;;;5087425;27;10879;-77
2023/01/15 00:51:40;;;;;;;;;0.00;0.00;;;;;;;;5121614;27;10882;-78
2023/01/15 00:54:09;;;;;;;;;0.00;0.00;;;;;;;;5119054;27;10826;-78
2023/01/15 00:56:36;;;;;;;;;0.00;0.00;;;;;;;;5106397;27;11718;-78
2023/01/15 00:59:05;;;;;;;;;2.00;0.00;;;;;;;;5123549;27;10912;-78
2023/01/15 01:01:32;;;;;;;;;0.00;0.00;;;;;;;;5139307;27;10815;-78
2023/01/15 01:04:00;;;;;;;;;0.00;0.00;;;;;;;;5130857;27;11053;-78
2023/01/15 01:06:27;;;;;;;;;0.00;0.00;;;;;;;;5148907;27;10879;-78
2023/01/15 01:08:55;;;;;;;;;0.00;0.00;;;;;;;;5126357;27;10851;-78
2023/01/15 01:11:25;;;;;;;;;0.00;0.00;;;;;;;;5131460;27;10772;-78
2023/01/15 01:13:54;;;;;;;;;0.00;0.00;;;;;;;;5146556;27;10976;-79
2023/01/15 01:16:29;;;;;;;;;0.00;0.00;;;;;;;;5147147;27;10804;-79
2023/01/15 01:18:58;;;;;;;;;0.00;0.00;;;;;;;;5147841;27;10892;-79
2023/01/15 01:21:25;;;;;;;;;1.00;1.00;;;;;;;;5133028;27;11057;-78
2023/01/15 01:23:53;;;;;;;;;0.00;0.00;;;;;;;;5097734;27;10936;-79
2023/01/15 01:26:21;;;;;;;;;0.00;0.00;;;;;;;;5129615;27;10955;-78
2023/01/15 01:28:54;;;;;;;;;0.00;0.00;;;;;;;;5124674;27;11011;-78
2023/01/15 01:31:22;;;;;;;;;0.00;0.00;;;;;;;;5128583;27;10801;-78
2023/01/15 01:33:51;;;;;;;;;0.00;0.00;;;;;;;;5120975;27;11036;-78
2023/01/15 01:36:19;;;;;;;;;0.50;0.50;;;;;;;;5124793;27;11049;-78
2023/01/15 01:38:49;;;;;;;;;0.00;0.00;;;;;;;;5119395;27;11030;-78
2023/01/15 01:41:17;;;;;;;;;0.00;0.00;;;;;;;;5105818;27;10852;-77
2023/01/15 01:43:56;;;;;;;;;0.00;0.00;;;;;;;;5122488;27;11015;-77
2023/01/15 01:46:25;;;;;;;;;0.00;0.00;;;;;;;;5124412;27;10943;-77
2023/01/15 01:48:55;;;;;;;;;0.00;0.00;;;;;;;;5121536;27;10965;-78
2023/01/15 01:51:25;;;;;;;;;1.00;1.00;;;;;;;;5103393;27;11021;-77
2023/01/15 01:53:53;;;;;;;;;0.00;0.00;;;;;;;;5105432;27;11011;-77
2023/01/15 01:56:22;;;;;;;;;0.00;0.00;;;;;;;;5122687;27;11011;-78
2023/01/15 01:58:54;;;;;;;;;0.00;0.00;;;;;;;;5103092;27;11081;-77
2023/01/15 02:01:23;;;;;;;;;0.00;0.00;;;;;;;;5122132;27;11045;-78
2023/01/15 02:03:51;;;;;;;;;0.00;0.00;;;;;;;;5123924;27;11084;-78
2023/01/15 02:06:19;;;;;;;;;0.00;0.00;;;;;;;;5125814;27;10900;-78
2023/01/15 02:08:46;;;;;;;;;0.00;0.00;;;;;;;;5126553;27;11110;-78
2023/01/15 02:11:18;;;;;;;;;0.00;0.00;;;;;;;;5106784;27;10948;-77
2023/01/15 02:13:50;;;;;;;;;0.00;0.00;;;;;;;;5123341;27;11049;-77
2023/01/15 02:16:23;;;;;;;;;0.00;0.00;;;;;;;;5105991;27;11983;-78
2023/01/15 02:18:56;;;;;;;;;0.00;0.00;;;;;;;;5124433;27;11013;-78
2023/01/15 02:21:27;;;;;;;;;0.00;0.00;;;;;;;;5139633;27;11070;-78
2023/01/15 02:24:07;;;;;;;;;0.00;0.00;;;;;;;;5142286;27;11184;-78
2023/01/15 02:27:00;;;;;;;;;0.00;0.00;;;;;;;;5143546;27;11052;-78
2023/01/15 02:29:32;;;;;;;;;0.00;0.00;;;;;;;;5142254;27;11089;-78
2023/01/15 02:32:02;;;;;;;;;0.00;0.00;;;;;;;;5122749;27;10861;-78
2023/01/15 02:34:32;;;;;;;;;0.00;0.00;;;;;;;;5120925;27;11131;-78
2023/01/15 02:37:04;;;;;;;;;0.00;0.00;;;;;;;;5121267;27;11108;-78
2023/01/15 02:39:32;;;;;;;;;0.00;0.00;;;;;;;;5122595;27;11036;-78
2023/01/15 02:42:04;;;;;;;;;0.00;0.00;;;;;;;;5100385;27;11055;-78
2023/01/15 02:44:33;;;;;;;;;1.00;0.00;;;;;;;;5121621;27;11154;-78
2023/01/15 02:47:01;;;;;;;;;1.00;0.00;;;;;;;;5122854;27;11150;-78
2023/01/15 02:49:31;;;;;;;;;1.00;0.00;;;;;;;;5118013;27;11443;-78
2023/01/15 02:52:02;;;;;;;;;0.00;0.00;;;;;;;;5116882;27;11393;-78
2023/01/15 02:54:35;;;;;;;;;0.00;0.00;;;;;;;;5121582;27;11956;-78
2023/01/15 02:57:06;;;;;;;;;0.25;0.00;;;;;;;;5122280;27;11099;-78
2023/01/15 02:59:39;;;;;;;;;0.00;0.00;;;;;;;;5121102;27;12226;-79
2023/01/15 03:02:12;;;;;;;;;0.00;0.00;;;;;;;;5123021;27;11021;-78
2023/01/15 03:04:43;;;;;;;;;0.25;0.00;;;;;;;;5122481;27;11168;-77
2023/01/15 03:07:16;;;;;;;;;0.00;0.00;;;;;;;;5121427;27;11145;-77
2023/01/15 03:09:43;;;;;;;;;0.50;0.00;;;;;;;;5121076;27;11193;-78
2023/01/15 03:12:16;;;;;;;;;0.00;0.00;;;;;;;;5122140;27;11158;-78
2023/01/15 03:14:50;;;;;;;;;0.00;0.00;;;;;;;;5121709;27;11553;-79
2023/01/15 03:17:21;;;;;;;;;1.00;0.00;;;;;;;;5120760;27;11297;-76
2023/01/15 03:19:54;;;;;;;;;0.00;0.00;;;;;;;;5120171;27;11395;-77
2023/01/15 03:22:26;;;;;;;;;0.00;0.00;;;;;;;;5121368;27;11178;-78
2023/01/15 03:24:55;;;;;;;;;0.75;0.00;;;;;;;;5124848;27;11417;-78
2023/01/15 03:27:25;;;;;;;;;0.00;0.00;;;;;;;;5119659;27;11313;-78
2023/01/15 03:29:55;;;;;;;;;0.00;0.00;;;;;;;;5123211;27;11399;-78
2023/01/15 03:32:24;;;;;;;;;3.00;0.00;;;;;;;;5122533;27;11334;-77
2023/01/15 03:34:53;;;;;;;;;0.50;0.00;;;;;;;;5123324;27;11391;-78
2023/01/15 03:37:22;;;;;;;;;0.00;0.00;;;;;;;;5119085;27;11410;-78
2023/01/15 03:39:51;;;;;;;;;2.00;0.00;;;;;;;;5099016;27;11407;-78
2023/01/15 03:42:30;;;;;;;;;0.00;0.00;;;;;;;;5123969;27;11374;-77
2023/01/15 03:45:02;;;;;;;;;0.00;0.00;;;;;;;;5125315;27;11384;-78
2023/01/15 03:47:36;;;;;;;;;0.75;0.00;;;;;;;;5123177;27;11934;-78
2023/01/15 03:50:10;;;;;;;;;0.00;0.00;;;;;;;;5124879;27;11144;-78
2023/01/15 03:52:42;;;;;;;;;0.00;0.00;;;;;;;;5119810;27;11612;-77
2023/01/15 03:55:13;;;;;;;;;0.00;0.00;;;;;;;;5103263;28;11154;-77
2023/01/15 03:57:48;;;;;;;;;0.00;0.00;;;;;;;;5114569;27;11167;-78
2023/01/15 04:00:22;;;;;;;;;0.00;0.00;;;;;;;;5123803;27;12246;-78
2023/01/15 04:02:53;;;;;;;;;0.00;0.00;;;;;;;;5122713;27;12113;-78
2023/01/15 04:05:21;;;;;;;;;0.00;0.00;;;;;;;;5125041;27;12191;-78
2023/01/15 04:07:50;;;;;;;;;0.00;0.00;;;;;;;;5125079;27;11398;-78
2023/01/15 04:10:18;;;;;;;;;0.00;0.00;;;;;;;;5125162;27;11373;-78
2023/01/15 04:12:48;;;;;;;;;0.00;0.00;;;;;;;;5124590;27;11171;-78
2023/01/15 04:15:16;;;;;;;;;0.00;0.00;;;;;;;;5106202;27;11358;-78
2023/01/15 04:17:44;;;;;;;;;0.00;0.00;;;;;;;;5124561;27;11379;-78
2023/01/15 04:20:12;;;;;;;;;0.00;0.00;;;;;;;;5124955;27;11422;-78
2023/01/15 04:22:40;;;;;;;;;0.00;0.00;;;;;;;;5124191;27;11438;-78
2023/01/15 04:25:08;;;;;;;;;0.75;0.00;;;;;;;;5122220;27;12245;-76
2023/01/15 04:27:36;;;;;;;;;0.00;0.00;;;;;;;;5120505;27;11472;-77
2023/01/15 04:30:06;;;;;;;;;0.00;0.00;;;;;;;;5120401;27;11429;-77
2023/01/15 04:32:33;;;;;;;;;0.00;0.00;;;;;;;;5120180;27;11319;-78
2023/01/15 04:35:00;;;;;;;;;0.00;0.00;;;;;;;;5121663;27;11349;-78
2023/01/15 04:37:28;;;;;;;;;0.00;0.00;;;;;;;;5117797;27;11343;-77
2023/01/15 04:39:56;;;;;;;;;0.00;0.00;;;;;;;;5101823;27;11339;-78
2023/01/15 04:45:11;;;;;;;;;0.00;0.00;;;;;;;;5121461;27;11433;-78
2023/01/15 04:47:39;;;;;;;;;1.00;0.00;;;;;;;;5121374;27;11353;-78
2023/01/15 04:50:07;;;;;;;;;0.25;0.00;;;;;;;;5118208;27;11338;-78
2023/01/15 04:52:35;;;;;;;;;0.00;0.00;;;;;;;;5123723;27;11329;-77
2023/01/15 04:55:02;;;;;;;;;0.50;0.00;;;;;;;;5117563;27;11338;-78
2023/01/15 04:57:29;;;;;;;;;0.00;0.00;;;;;;;;5101707;27;11353;-78
2023/01/15 04:59:57;;;;;;;;;2.00;0.00;;;;;;;;5104027;27;11362;-78
2023/01/15 05:02:26;;;;;;;;;0.00;0.00;;;;;;;;5115129;27;11498;-77
2023/01/15 05:04:53;;;;;;;;;0.00;0.00;;;;;;;;5118160;27;11379;-78
2023/01/15 05:07:20;;;;;;;;;0.00;0.00;;;;;;;;5119388;27;11406;-77
2023/01/15 05:09:50;;;;;;;;;0.00;0.00;;;;;;;;5116306;27;11371;-76
2023/01/15 05:12:17;;;;;;;;;0.00;0.00;;;;;;;;5118273;27;11446;-77
2023/01/15 05:14:45;;;;;;;;;0.00;0.00;;;;;;;;5117828;27;11445;-76
2023/01/15 05:17:12;;;;;;;;;0.00;0.00;;;;;;;;5116651;27;11492;-77
2023/01/15 05:19:41;;;;;;;;;0.00;0.00;;;;;;;;5104530;27;11378;-77
2023/01/15 05:22:09;;;;;;;;;0.00;0.00;;;;;;;;5122972;27;11404;-77
2023/01/15 05:24:37;;;;;;;;;0.00;0.00;;;;;;;;5142123;27;11373;-77
2023/01/15 05:27:05;;;;;;;;;0.00;0.00;;;;;;;;5139417;27;11377;-78
2023/01/15 05:29:33;;;;;;;;;0.00;0.00;;;;;;;;5121688;27;11431;-78
2023/01/15 05:32:00;;;;;;;;;0.00;0.00;;;;;;;;5124622;27;11303;-77
2023/01/15 05:34:27;;;;;;;;;1.00;0.00;;;;;;;;5122608;27;11354;-78
2023/01/15 05:36:57;;;;;;;;;0.00;0.00;;;;;;;;5141578;27;11370;-80
2023/01/15 05:39:24;;;;;;;;;0.00;0.00;;;;;;;;5121094;27;11380;-78
2023/01/15 05:41:52;;;;;;;;;0.00;0.00;;;;;;;;5141695;27;11370;-78
2023/01/15 05:44:22;;;;;;;;;0.00;0.00;;;;;;;;5142335;27;11355;-78
2023/01/15 05:46:50;;;;;;;;;0.00;0.00;;;;;;;;5142347;27;11414;-78
2023/01/15 05:49:20;;;;;;;;;0.00;0.00;;;;;;;;5141026;27;11386;-78
2023/01/15 05:51:49;;;;;;;;;0.00;0.00;;;;;;;;5141610;27;11516;-78
2023/01/15 05:54:20;;;;;;;;;0.00;0.00;;;;;;;;5125128;27;11559;-79
2023/01/15 05:56:48;;;;;;;;;0.00;0.00;;;;;;;;5141404;27;11342;-77
2023/01/15 05:59:16;;;;;;;;;0.00;0.00;;;;;;;;5125759;27;11335;-77
2023/01/15 06:01:44;;;;;;;;;0.00;0.00;;;;;;;;5123914;27;11386;-79
2023/01/15 06:04:13;;;;;;;;;0.00;0.00;;;;;;;;5144010;27;11351;-77
2023/01/15 06:06:42;;;;;;;;;0.00;0.00;;;;;;;;5142678;27;11374;-78
2023/01/15 06:09:09;;;;;;;;;0.00;0.00;;;;;;;;5124290;27;11435;-78
2023/01/15 06:11:38;;;;;;;;;1.00;0.00;;;;;;;;5141080;27;11396;-78
2023/01/15 06:14:07;;;;;;;;;1.00;0.00;;;;;;;;5142523;27;12223;-78
2023/01/15 06:16:34;;;;;;;;;0.00;0.00;;;;;;;;5143268;27;11368;-78
2023/01/15 06:19:04;;;;;;;;;0.00;0.00;;;;;;;;5141275;27;12112;-78
2023/01/15 06:21:31;;;;;;;;;0.00;0.00;;;;;;;;5143424;27;11353;-78
2023/01/15 06:23:59;;;;;;;;;0.25;0.00;;;;;;;;5141072;27;11377;-78
2023/01/15 06:26:27;;;;;;;;;0.00;0.00;;;;;;;;5142316;27;11345;-78
2023/01/15 06:28:56;;;;;;;;;0.00;0.00;;;;;;;;5143355;27;11363;-78
2023/01/15 06:31:26;;;;;;;;;1.00;0.00;;;;;;;;5140949;27;11311;-78
2023/01/15 06:33:53;;;;;;;;;0.00;0.00;;;;;;;;5143163;27;11439;-77
2023/01/15 06:36:24;;;;;;;;;0.00;0.00;;;;;;;;5104453;27;11395;-77
2023/01/15 06:38:52;;;;;;;;;0.00;0.00;;;;;;;;5141340;27;11428;-78
2023/01/15 06:49:39;;;;;;;;;1.00;0.00;;;;;;;;5142825;27;11373;-78
2023/01/15 06:52:07;;;;;;;;;0.00;0.00;;;;;;;;5107930;27;11389;-78
2023/01/15 06:54:35;;;;;;;;;0.00;0.00;;;;;;;;5122627;27;11379;-77
2023/01/15 06:57:03;;;;;;;;;0.50;0.00;;;;;;;;5120638;27;11371;-79
2023/01/15 06:59:32;;;;;;;;;0.00;0.00;;;;;;;;5128301;27;11409;-79
2023/01/15 07:01:59;;;;;;;;;0.00;0.00;;;;;;;;5145259;27;11378;-78
2023/01/15 07:04:26;;;;;;;;;0.00;0.00;;;;;;;;5144657;27;11371;-78
2023/01/15 07:06:55;;;;;;;;;0.00;0.00;;;;;;;;5142637;27;11423;-78
2023/01/15 07:09:23;;;;;;;;;0.00;0.00;;;;;;;;5129356;27;12173;-78
2023/01/15 07:12:39;;;;;;;;;0.00;0.00;;;;;;;;5102035;27;14270;-75
2023/01/15 07:15:08;;;;;;;;;0.00;0.00;;;;;;;;5060112;28;11411;-77
2023/01/15 07:17:36;;;;;;;;;0.00;0.00;;;;;;;;5059824;28;11529;-77
2023/01/15 07:20:04;;;;;;;;;0.00;0.00;;;;;;;;5073019;28;11434;-77
2023/01/15 07:22:32;;;;;;;;;0.00;0.00;;;;;;;;5075056;28;11425;-76
2023/01/15 07:24:59;;;;;;;;;1.00;0.00;;;;;;;;5075503;28;11477;-77
2023/01/15 07:27:27;;;;;;;;;0.00;0.00;;;;;;;;5076108;28;11477;-77
2023/01/15 07:29:55;;;;;;;;;0.00;0.00;;;;;;;;5055019;28;11431;-77
2023/01/15 07:32:23;;;;;;;;;0.00;0.00;;;;;;;;5072136;27;11381;-76
2023/01/15 07:34:50;;;;;;;;;0.00;0.00;;;;;;;;5076083;28;11451;-73
2023/01/15 07:37:18;;;;;;;;;0.00;0.00;;;;;;;;5076565;28;11447;-73
2023/01/15 07:39:45;;;;;;;;;0.00;0.00;;;;;;;;5073339;28;12232;-73
2023/01/15 07:50:34;;;;;;;;;0.75;0.00;;;;;;;;5034526;28;11467;-74
2023/01/15 07:53:01;;;;;;;;;0.00;0.00;;;;;;;;5071902;28;11544;-74
2023/01/15 07:55:29;;;;;;;;;0.00;0.00;;;;;;;;5070882;28;11405;-77
2023/01/15 07:57:56;;;;;;;;;0.00;0.00;;;;;;;;5073315;28;11428;-75
2023/01/15 08:00:26;;;;;;;;;0.00;0.00;;;;;;;;5069321;27;11451;-77
2023/01/15 08:02:53;;;;;;;;;0.50;0.00;;;;;;;;5074293;28;11460;-73
2023/01/15 08:05:21;;;;;;;;;0.00;0.00;;;;;;;;5072848;28;11559;-77
2023/01/15 08:07:49;;;;;;;;;0.00;0.00;;;;;;;;5069975;28;11478;-76
2023/01/15 08:10:17;;;;;;;;;0.00;0.00;;;;;;;;5075619;28;11473;-74
2023/01/15 08:15:34;;;;;;;;;0.00;0.00;;;;;;;;5084580;28;11462;-75
2023/01/15 08:18:01;;;;;;;;;0.00;0.00;;;;;;;;5078473;28;11433;-76
2023/01/15 08:20:29;;;;;;;;;0.00;0.00;;;;;;;;5077194;28;11439;-76
2023/01/15 08:22:56;;;;;;;;;0.00;0.00;;;;;;;;5070544;28;11422;-77
2023/01/15 08:25:25;;;;;;;;;0.00;0.00;;;;;;;;5065860;28;12245;-77
2023/01/15 08:27:52;;;;;;;;;0.00;0.00;;;;;;;;5067325;28;11478;-75
2023/01/15 08:30:22;;;;;;;;;0.00;0.00;;;;;;;;5063772;28;11434;-76
2023/01/15 08:32:51;;;;;;;;;0.00;0.00;;;;;;;;5043600;28;12350;-78
2023/01/15 08:35:19;;;;;;;;;0.75;0.00;;;;;;;;5049169;28;11477;-76
2023/01/15 08:37:46;;;;;;;;;0.00;0.00;;;;;;;;5049137;28;11434;-76
2023/01/15 08:40:14;;;;;;;;;0.75;0.00;;;;;;;;5045835;28;12245;-77
2023/01/15 08:42:42;;;;;;;;;0.00;0.00;;;;;;;;5047200;28;11475;-75
2023/01/15 08:45:11;;;;;;;;;0.00;0.00;;;;;;;;5046395;28;11436;-77
2023/01/15 08:47:39;;;;;;;;;0.00;0.00;;;;;;;;5046469;28;11511;-77
2023/01/15 08:50:09;;;;;;;;;0.75;0.00;;;;;;;;5044969;28;11480;-77
2023/01/15 08:52:38;;;;;;;;;0.00;0.00;;;;;;;;5044273;28;11514;-78
2023/01/15 08:55:06;;;;;;;;;0.00;0.00;;;;;;;;5044151;28;11450;-77
2023/01/15 08:57:34;;;;;;;;;0.00;0.00;;;;;;;;5045876;28;11447;-76
2023/01/15 09:00:01;;;;;;;;;0.50;0.00;;;;;;;;5049514;28;11425;-75
2023/01/15 09:02:29;;;;;;;;;0.50;0.00;;;;;;;;5065309;28;11392;-75
2023/01/15 09:04:56;;;;;;;;;0.00;0.00;;;;;;;;5067109;28;12195;-76
2023/01/15 09:07:25;;;;;;;;;0.00;0.00;;;;;;;;5070580;28;12790;-76
2023/01/15 09:09:55;;;;;;;;;0.00;0.00;;;;;;;;5061902;28;11421;-76
2023/01/15 09:12:25;;;;;;;;;0.00;0.00;;;;;;;;5028252;28;11520;-76
2023/01/15 09:14:52;;;;;;;;;0.00;0.00;;;;;;;;5062355;28;11465;-76
2023/01/15 09:17:20;;;;;;;;;0.00;0.00;;;;;;;;5062273;28;11412;-76
2023/01/15 09:19:47;;;;;;;;;0.00;0.00;;;;;;;;5057939;28;11463;-76
2023/01/15 09:22:15;;;;;;;;;0.00;0.00;;;;;;;;5061462;28;12312;-76
2023/01/15 09:24:43;;;;;;;;;1.25;0.00;;;;;;;;5071311;28;11895;-76
2023/01/15 09:27:12;;;;;;;;;0.00;0.00;;;;;;;;5061554;28;12172;-75
2023/01/15 09:29:40;;;;;;;;;1.00;0.00;;;;;;;;5067186;28;11610;-75
2023/01/15 09:32:09;;;;;;;;;0.50;0.00;;;;;;;;5071358;28;11397;-80
2023/01/15 09:34:37;;;;;;;;;0.00;0.00;;;;;;;;5066065;28;11401;-77
2023/01/15 09:37:04;;;;;;;;;0.00;0.00;;;;;;;;5067040;28;11438;-81
2023/01/15 09:39:32;;;;;;;;;0.00;0.00;;;;;;;;5067230;28;11453;-80
2023/01/15 09:42:12;;;;;;;;;0.00;0.00;;;;;;;;5065912;28;11412;-76
2023/01/15 09:45:18;;;;;;;;;0.00;0.00;;;;;;;;5065372;28;11449;-76
2023/01/15 09:48:06;;;;;;;;;0.00;0.00;;;;;;;;5061781;28;11470;-76
2023/01/15 09:50:43;;;;;;;;;0.00;0.00;;;;;;;;5066214;28;11434;-76
2023/01/15 09:53:37;;;;;;;;;0.00;0.00;;;;;;;;5066597;28;11429;-75
2023/01/15 09:56:05;;;;;;;;;0.00;0.00;;;;;;;;5059044;28;11432;-75
2023/01/15 09:58:36;;;;;;;;;1.25;0.00;;;;;;;;5061187;28;11421;-75
2023/01/15 10:01:04;;;;;;;;;0.00;0.00;;;;;;;;5067256;28;11389;-78
2023/01/15 10:03:35;;;;;;;;;0.00;0.00;;;;;;;;5067585;28;11221;-75
2023/01/15 10:06:10;;;;;;;;;0.00;0.00;;;;;;;;5064664;28;11482;-76
2023/01/15 10:08:41;;;;;;;;;0.00;0.00;;;;;;;;5059421;28;11452;-75
2023/01/15 10:12:34;;;;;;;;;0.00;0.00;;;;;;;;5060536;28;11449;-76
2023/01/15 10:14:30;;;;;;;;;0.00;0.00;;;;;;;;5060170;28;11526;-76
2023/01/15 10:17:00;;;;;;;;;0.75;0.00;;;;;;;;5063565;28;11463;-76
2023/01/15 10:19:28;;;;;;;;;0.00;0.00;;;;;;;;5066785;28;12182;-77
2023/01/15 10:22:00;;;;;;;;;1.00;0.00;;;;;;;;5061201;28;11166;-76
2023/01/15 10:24:34;;;;;;;;;0.00;0.00;;;;;;;;5058167;28;12199;-76
2023/01/15 10:27:08;;;;;;;;;0.00;0.00;;;;;;;;5059544;28;11431;-76
2023/01/15 10:29:43;;;;;;;;;0.00;0.00;;;;;;;;5058772;28;11059;-77
2023/01/15 10:32:29;;;;;;;;;0.50;0.00;;;;;;;;5058656;28;10910;-77
2023/01/15 10:35:13;;;;;;;;;0.50;0.00;;;;;;;;5059048;28;11191;-76
2023/01/15 10:37:44;;;;;;;;;1.00;0.00;;;;;;;;5059259;28;11224;-78
2023/01/15 10:40:23;;;;;;;;;0.00;0.00;;;;;;;;5060940;28;11139;-80
2023/01/15 10:42:57;;;;;;;;;1.00;0.00;;;;;;;;5061324;28;11112;-79
2023/01/15 10:45:28;;;;;;;;;0.00;0.00;;;;;;;;5059560;28;11017;-79
2023/01/15 10:48:00;;;;;;;;;0.00;0.00;;;;;;;;5061276;28;11033;-75
2023/01/15 10:50:28;;;;;;;;;0.00;0.00;;;;;;;;5057200;28;11048;-79
2023/01/15 10:53:06;;;;;;;;;0.00;0.00;;;;;;;;5061941;28;11035;-79
2023/01/15 10:55:36;;;;;;;;;0.00;0.00;;;;;;;;5059976;28;11126;-75
2023/01/15 10:58:12;;;;;;;;;0.00;0.00;;;;;;;;5059630;28;11114;-74
2023/01/15 11:00:41;;;;;;;;;0.00;0.00;;;;;;;;5060790;28;11160;-75
2023/01/15 11:03:15;;;;;;;;;0.00;0.00;;;;;;;;5059482;28;11133;-75
2023/01/15 11:05:44;;;;;;;;;1.50;0.00;;;;;;;;5059229;28;11333;-79
2023/01/15 11:08:25;;;;;;;;;1.00;1.00;;;;;;;;5059302;28;11057;-78
2023/01/15 11:10:52;;;;;;;;;0.00;0.00;;;;;;;;5059818;28;11169;-74
2023/01/15 11:19:40;;;;;;;;;0.00;0.00;;;;;;;;4998560;28;10994;-79
2023/01/15 11:22:10;;;;;;;;;0.00;0.00;;;;;;;;4998561;28;11219;-73
2023/01/15 11:24:38;;;;;;;;;0.00;0.00;;;;;;;;5036876;28;11103;-80
2023/01/15 11:27:07;;;;;;;;;0.00;0.00;;;;;;;;5060815;28;11126;-76
2023/01/15 11:29:37;;;;;;;;;0.00;0.00;;;;;;;;5060877;28;11212;-77
2023/01/15 11:32:19;;;;;;;;;0.00;0.00;;;;;;;;5060452;28;11797;-77
2023/01/15 11:34:54;;;;;;;;;0.00;0.00;;;;;;;;5060091;28;11129;-77
2023/01/15 11:37:21;;;;;;;;;0.00;0.00;;;;;;;;5058946;28;11053;-78
2023/01/15 11:40:05;;;;;;;;;0.00;0.00;;;;;;;;5054957;28;10997;-76
2023/01/15 11:51:04;;;;;;;;;3.00;0.00;;;;;;;;5059188;28;11424;-77
2023/01/15 11:53:35;;;;;;;;;0.00;0.00;;;;;;;;5060530;28;10673;-78
2023/01/15 11:56:08;;;;;;;;;2.00;0.00;;;;;;;;5060911;28;10561;-76
2023/01/15 11:58:41;;;;;;;;;2.00;0.50;;;;;;;;5061813;28;10645;-77
2023/01/15 12:01:09;;;;;;;;;0.00;0.00;;;;;;;;5063687;28;10716;-79
2023/01/15 12:03:39;;;;;;;;;0.00;0.00;;;;;;;;5063872;28;11560;-75
2023/01/15 12:06:09;;;;;;;;;0.00;0.00;;;;;;;;5061430;28;10754;-76
2023/01/15 12:08:46;;;;;;;;;0.00;0.00;;;;;;;;5058990;28;11758;-77
2023/01/15 12:11:40;;;;;;;;;0.00;0.00;;;;;;;;5070236;28;10834;-74
2023/01/15 12:14:32;;;;;;;;;0.75;0.00;;;;;;;;5060233;28;10747;-73
2023/01/15 12:17:04;;;;;;;;;0.50;0.00;;;;;;;;5081637;28;10737;-75
2023/01/15 12:19:39;;;;;;;;;1.00;0.00;;;;;;;;5082097;28;10518;-74
2023/01/15 12:22:24;;;;;;;;;0.00;0.00;;;;;;;;5066632;28;10546;-74
2023/01/15 12:25:24;;;;;;;;;1.00;0.00;;;;;;;;5063975;28;10607;-73
2023/01/15 12:28:06;;;;;;;;;0.00;0.00;;;;;;;;5075163;28;10712;-76
2023/01/15 12:30:45;;;;;;;;;1.50;0.25;;;;;;;;5080885;28;10591;-75
2023/01/15 12:33:31;;;;;;;;;0.00;0.00;;;;;;;;5081931;28;10646;-75
2023/01/15 12:36:04;;;;;;;;;0.00;0.00;;;;;;;;5089850;27;11566;-74
2023/01/15 12:38:44;;;;;;;;;0.00;0.00;;;;;;;;5081726;28;10673;-74
2023/01/15 12:41:15;;;;;;;;;0.00;0.00;;;;;;;;5067123;28;10795;-74
2023/01/15 12:46:33;;;;;;;;;0.00;0.00;;;;;;;;5067115;28;10536;-76
2023/01/15 12:49:06;;;;;;;;;0.50;0.00;;;;;;;;5084120;28;10797;-76
2023/01/15 12:51:41;;;;;;;;;0.25;0.00;;;;;;;;5065893;28;10691;-77
2023/01/15 12:54:13;;;;;;;;;0.00;0.00;;;;;;;;5071354;28;10841;-77
2023/01/15 12:56:50;;;;;;;;;1.00;0.00;;;;;;;;5083275;28;10720;-77
2023/01/15 12:59:22;;;;;;;;;0.00;0.00;;;;;;;;5080618;28;10655;-76
2023/01/15 13:02:01;;;;;;;;;0.00;0.00;;;;;;;;5082465;28;10708;-77
2023/01/15 13:04:35;;;;;;;;;1.00;0.00;;;;;;;;5080415;28;10752;-76
2023/01/15 13:07:07;;;;;;;;;4.00;1.00;;;;;;;;5080608;28;10747;-76
2023/01/15 13:09:40;;;;;;;;;0.25;0.25;;;;;;;;5079790;28;10680;-78
2023/01/15 13:12:13;;;;;;;;;0.00;0.00;;;;;;;;5083502;28;10715;-78
2023/01/15 13:14:40;;;;;;;;;0.00;0.00;;;;;;;;5081860;28;10641;-75
2023/01/15 13:17:15;;;;;;;;;0.00;0.00;;;;;;;;5076782;28;10510;-74
2023/01/15 13:19:53;;;;;;;;;0.00;0.00;;;;;;;;5066201;28;10795;-74
2023/01/15 13:22:25;;;;;;;;;1.00;1.00;;;;;;;;5080377;28;10649;-75
2023/01/15 13:25:06;;;;;;;;;1.00;0.00;;;;;;;;5078243;28;10579;-74
2023/01/15 13:27:50;;;;;;;;;1.50;0.00;;;;;;;;5064325;28;10646;-75
2023/01/15 13:30:37;;;;;;;;;0.00;0.00;;;;;;;;5078589;28;11538;-75
2023/01/15 13:33:17;;;;;;;;;0.00;0.00;;;;;;;;5063006;28;10674;-75
2023/01/15 13:35:48;;;;;;;;;2.00;0.00;;;;;;;;5063370;28;10800;-75
2023/01/15 13:38:20;;;;;;;;;0.00;0.00;;;;;;;;5079731;28;10820;-76
2023/01/15 13:40:51;;;;;;;;;0.00;0.00;;;;;;;;5063875;28;10689;-74
2023/01/15 13:43:29;;;;;;;;;0.00;0.00;;;;;;;;5079175;28;10589;-74
2023/01/15 13:45:57;;;;;;;;;1.75;0.00;;;;;;;;5080512;28;10660;-77
2023/01/15 13:48:31;;;;;;;;;0.50;0.00;;;;;;;;5047949;28;10672;-79
2023/01/15 13:50:59;;;;;;;;;0.00;0.00;;;;;;;;5080810;28;10479;-76
2023/01/15 13:53:30;;;;;;;;;0.00;0.00;;;;;;;;5067605;28;10535;-78
2023/01/15 13:56:04;;;;;;;;;1.25;0.00;;;;;;;;5067374;28;10512;-76
2023/01/15 13:58:33;;;;;;;;;0.00;0.00;;;;;;;;5064085;28;10417;-75
2023/01/15 14:01:10;;;;;;;;;0.25;0.00;;;;;;;;5080293;28;11009;-75
2023/01/15 14:03:38;;;;;;;;;0.00;0.00;;;;;;;;5064848;28;10377;-76
2023/01/15 14:06:07;;;;;;;;;0.00;0.00;;;;;;;;5065473;28;10229;-76
2023/01/15 14:08:42;;;;;;;;;0.00;0.00;;;;;;;;5080275;28;10215;-76
2023/01/15 14:11:30;;;;;;;;;0.00;0.00;;;;;;;;5079686;28;10981;-76
2023/01/15 14:14:16;;;;;;;;;0.00;0.00;;;;;;;;5064352;28;10230;-75
2023/01/15 14:16:53;;;;;;;;;0.00;0.00;;;;;;;;5079810;28;11041;-76
2023/01/15 14:19:51;;;;;;;;;0.00;0.00;;;;;;;;5081085;28;10311;-77
2023/01/15 14:22:37;;;;;;;;;0.00;0.00;;;;;;;;5080209;28;10283;-77
2023/01/15 14:25:44;;;;;;;;;0.00;0.00;;;;;;;;5081567;28;10365;-78
2023/01/15 14:28:28;;;;;;;;;0.00;0.00;;;;;;;;5050256;28;10313;-77
2023/01/15 14:31:29;;;;;;;;;0.00;0.00;;;;;;;;5068033;28;11109;-74
2023/01/15 14:34:13;;;;;;;;;0.00;0.00;;;;;;;;5081729;28;11222;-74
2023/01/15 14:36:59;;;;;;;;;1.00;0.00;;;;;;;;5080349;28;11229;-77
2023/01/15 14:39:33;;;;;;;;;1.00;0.75;;;;;;;;5080166;28;10482;-77
2023/01/15 14:45:01;;;;;;;;;2.00;0.00;;;;;;;;5079129;28;10321;-77
2023/01/15 14:47:33;;;;;;;;;1.00;1.00;;;;;;;;5076237;28;10232;-75
2023/01/15 14:50:17;;;;;;;;;1.50;0.25;;;;;;;;5079685;28;10308;-75
2023/01/15 14:52:46;;;;;;;;;2.00;0.25;;;;;;;;5061376;28;10323;-74
2023/01/15 14:55:13;;;;;;;;;0.00;0.00;;;;;;;;5078822;28;10217;-76
2023/01/15 14:57:46;;;;;;;;;0.00;0.00;;;;;;;;5068898;28;10195;-75
2023/01/15 15:00:18;;;;;;;;;0.00;0.00;;;;;;;;5079331;28;10145;-75
2023/01/15 15:02:48;;;;;;;;;0.00;0.00;;;;;;;;5081225;28;10976;-74
2023/01/15 15:05:17;;;;;;;;;0.00;0.00;;;;;;;;5081342;28;10260;-74
2023/01/15 15:07:47;;;;;;;;;0.00;0.00;;;;;;;;5079367;28;10304;-75
2023/01/15 15:10:24;;;;;;;;;4.50;0.50;;;;;;;;5076185;28;10219;-75
2023/01/15 15:13:00;;;;;;;;;1.50;0.00;;;;;;;;5075973;28;10362;-75
2023/01/15 15:15:39;;;;;;;;;2.00;0.25;;;;;;;;5064501;28;10312;-75
2023/01/15 15:18:14;;;;;;;;;0.00;0.00;;;;;;;;5082880;28;10334;-75
2023/01/15 15:20:50;;;;;;;;;0.00;0.00;;;;;;;;5078210;28;10270;-74
2023/01/15 15:23:24;;;;;;;;;0.00;0.00;;;;;;;;5081078;28;10429;-74
2023/01/15 15:25:57;;;;;;;;;0.00;0.00;;;;;;;;5080738;28;10515;-74
2023/01/15 15:28:26;;;;;;;;;1.25;0.00;;;;;;;;5060063;28;10637;-75
2023/01/15 15:30:56;;;;;;;;;0.75;0.00;;;;;;;;5072152;28;10376;-74
2023/01/15 15:33:26;;;;;;;;;1.00;0.00;;;;;;;;5063055;28;10557;-75
2023/01/15 15:35:55;;;;;;;;;2.00;0.25;;;;;;;;5062678;28;11218;-75
2023/01/15 15:38:24;;;;;;;;;0.00;0.00;;;;;;;;5065203;28;10627;-75
2023/01/15 15:40:54;;;;;;;;;0.00;0.00;;;;;;;;5063745;28;10511;-75
2023/01/15 15:49:10;;;;;;;;;0.50;0.50;;;;;;;;5062238;28;10395;-75
2023/01/15 15:51:40;;;;;;;;;1.50;0.00;;;;;;;;5063019;28;10549;-75
2023/01/15 15:54:18;;;;;;;;;0.00;0.00;;;;;;;;5065106;28;10590;-74
2023/01/15 15:56:59;;;;;;;;;0.00;0.00;;;;;;;;5061252;28;10597;-75
2023/01/15 15:59:31;;;;;;;;;1.00;1.00;;;;;;;;5062318;28;10523;-75
2023/01/15 16:02:01;;;;;;;;;0.00;0.00;;;;;;;;5061891;28;11430;-75
2023/01/15 16:04:29;;;;;;;;;1.75;0.25;;;;;;;;5061586;28;10813;-74